sensor_id;sensor_type;location;lat;lon;timestamp;P1;durP1;ratioP1;P2;durP2;ratioP2
54557;SDS011;40452;50.080;20.040;2024-02-26T04:33:06;22.17;;;12.85;;
54557;SDS011;40452;50.080;20.040;2024-02-26T04:35:33;20.92;;;13.13;;
54557;SDS011;40452;50.080;20.040;2024-02-26T04:38:00;24.92;;;13.30;;
54557;SDS011;40452;50.080;20.040;2024-02-26T04:40:26;21.00;;;12.88;;
54557;SDS011;40452;50.080;20.040;2024-02-26T04:42:52;21.45;;;12.60;;
54557;SDS011;40452;50.080;20.040;2024-02-26T04:45:18;22.45;;;12.73;;
54557;SDS011;40452;50.080;20.040;2024-02-26T04:47:44;23.60;;;12.70;;
54557;SDS011;40452;50.080;20.040;2024-02-26T04:50:10;22.65;;;12.35;;
54557;SDS011;40452;50.080;20.040;2024-02-26T04:52:36;21.65;;;11.77;;
54557;SDS011;40452;50.080;20.040;2024-02-26T04:55:02;23.33;;;11.90;;
54557;SDS011;40452;50.080;20.040;2024-02-26T04:57:28;21.77;;;11.18;;
54557;SDS011;40452;50.080;20.040;2024-02-26T04:59:54;21.15;;;11.70;;
54557;SDS011;40452;50.080;20.040;2024-02-26T05:02:21;21.88;;;10.82;;
54557;SDS011;40452;50.080;20.040;2024-02-26T05:04:46;18.88;;;10.88;;
54557;SDS011;40452;50.080;20.040;2024-02-26T05:07:12;19.27;;;10.55;;
54557;SDS011;40452;50.080;20.040;2024-02-26T05:09:39;20.45;;;10.40;;
54557;SDS011;40452;50.080;20.040;2024-02-26T05:12:08;21.70;;;10.98;;
54557;SDS011;40452;50.080;20.040;2024-02-26T05:14:34;17.70;;;10.70;;
54557;SDS011;40452;50.080;20.040;2024-02-26T05:17:00;17.63;;;10.20;;
54557;SDS011;40452;50.080;20.040;2024-02-26T05:19:26;19.77;;;10.50;;
54557;SDS011;40452;50.080;20.040;2024-02-26T05:21:52;21.48;;;10.18;;
54557;SDS011;40452;50.080;20.040;2024-02-26T05:24:18;18.15;;;9.60;;
54557;SDS011;40452;50.080;20.040;2024-02-26T05:26:47;17.73;;;9.80;;
54557;SDS011;40452;50.080;20.040;2024-02-26T05:29:13;19.00;;;9.88;;
54557;SDS011;40452;50.080;20.040;2024-02-26T05:31:41;16.70;;;9.60;;
54557;SDS011;40452;50.080;20.040;2024-02-26T05:34:07;17.02;;;9.70;;
54557;SDS011;40452;50.080;20.040;2024-02-26T05:36:34;16.85;;;9.20;;
54557;SDS011;40452;50.080;20.040;2024-02-26T05:39:06;16.73;;;9.68;;
54557;SDS011;40452;50.080;20.040;2024-02-26T05:41:32;17.63;;;9.38;;
54557;SDS011;40452;50.080;20.040;2024-02-26T05:44:01;18.65;;;10.40;;
54557;SDS011;40452;50.080;20.040;2024-02-26T05:46:30;19.75;;;9.90;;
54557;SDS011;40452;50.080;20.040;2024-02-26T05:48:56;15.05;;;9.30;;
54557;SDS011;40452;50.080;20.040;2024-02-26T05:51:22;14.98;;;8.50;;
54557;SDS011;40452;50.080;20.040;2024-02-26T05:53:48;17.13;;;8.93;;
54557;SDS011;40452;50.080;20.040;2024-02-26T05:56:19;17.23;;;9.03;;
54557;SDS011;40452;50.080;20.040;2024-02-26T05:58:45;16.70;;;9.55;;
54557;SDS011;40452;50.080;20.040;2024-02-26T06:01:11;15.90;;;8.65;;
54557;SDS011;40452;50.080;20.040;2024-02-26T06:03:37;17.98;;;8.80;;
54557;SDS011;40452;50.080;20.040;2024-02-26T06:06:03;14.98;;;8.15;;
54557;SDS011;40452;50.080;20.040;2024-02-26T06:08:29;14.80;;;8.48;;
54557;SDS011;40452;50.080;20.040;2024-02-26T06:10:56;14.80;;;9.18;;
54557;SDS011;40452;50.080;20.040;2024-02-26T06:13:22;18.40;;;9.30;;
54557;SDS011;40452;50.080;20.040;2024-02-26T06:15:48;16.35;;;8.43;;
54557;SDS011;40452;50.080;20.040;2024-02-26T06:18:14;14.85;;;8.80;;
54557;SDS011;40452;50.080;20.040;2024-02-26T06:20:41;19.35;;;9.18;;
54557;SDS011;40452;50.080;20.040;2024-02-26T06:23:07;20.88;;;9.18;;
54557;SDS011;40452;50.080;20.040;2024-02-26T06:25:33;19.83;;;9.40;;
54557;SDS011;40452;50.080;20.040;2024-02-26T06:27:59;16.25;;;8.63;;
54557;SDS011;40452;50.080;20.040;2024-02-26T06:30:24;18.05;;;9.13;;
54557;SDS011;40452;50.080;20.040;2024-02-26T06:32:51;16.08;;;8.68;;
54557;SDS011;40452;50.080;20.040;2024-02-26T06:35:17;13.65;;;8.50;;
54557;SDS011;40452;50.080;20.040;2024-02-26T06:37:44;17.80;;;8.85;;
54557;SDS011;40452;50.080;20.040;2024-02-26T06:40:10;13.07;;;8.02;;
54557;SDS011;40452;50.080;20.040;2024-02-26T06:42:36;16.40;;;8.93;;
54557;SDS011;40452;50.080;20.040;2024-02-26T13:01:35;4.32;;;3.28;;
54557;SDS011;40452;50.080;20.040;2024-02-26T13:04:01;4.90;;;3.15;;
54557;SDS011;40452;50.080;20.040;2024-02-26T13:06:31;5.35;;;3.20;;
54557;SDS011;40452;50.080;20.040;2024-02-26T13:08:58;8.98;;;3.13;;
54557;SDS011;40452;50.080;20.040;2024-02-26T13:11:24;5.85;;;3.00;;
54557;SDS011;40452;50.080;20.040;2024-02-26T13:13:51;8.13;;;3.08;;
54557;SDS011;40452;50.080;20.040;2024-02-26T13:16:17;7.78;;;3.50;;
54557;SDS011;40452;50.080;20.040;2024-02-26T13:18:43;7.85;;;3.72;;
54557;SDS011;40452;50.080;20.040;2024-02-26T13:21:15;7.20;;;4.10;;
54557;SDS011;40452;50.080;20.040;2024-02-26T13:23:42;7.63;;;4.28;;
54557;SDS011;40452;50.080;20.040;2024-02-26T13:26:08;7.47;;;4.40;;
54557;SDS011;40452;50.080;20.040;2024-02-26T13:28:37;7.05;;;3.75;;
54557;SDS011;40452;50.080;20.040;2024-02-26T13:31:03;10.52;;;4.45;;
54557;SDS011;40452;50.080;20.040;2024-02-26T13:33:31;7.82;;;4.40;;
54557;SDS011;40452;50.080;20.040;2024-02-26T13:35:58;7.75;;;4.22;;
54557;SDS011;40452;50.080;20.040;2024-02-26T13:38:24;7.35;;;4.35;;
54557;SDS011;40452;50.080;20.040;2024-02-26T13:40:50;10.70;;;4.00;;
54557;SDS011;40452;50.080;20.040;2024-02-26T13:43:17;8.77;;;3.97;;
54557;SDS011;40452;50.080;20.040;2024-02-26T13:45:44;7.00;;;4.13;;
54557;SDS011;40452;50.080;20.040;2024-02-26T13:48:10;11.40;;;4.47;;
54557;SDS011;40452;50.080;20.040;2024-02-26T13:50:36;8.02;;;3.83;;
54557;SDS011;40452;50.080;20.040;2024-02-26T13:53:02;6.45;;;3.97;;
54557;SDS011;40452;50.080;20.040;2024-02-26T13:55:29;6.70;;;3.97;;
54557;SDS011;40452;50.080;20.040;2024-02-26T13:57:57;8.75;;;4.40;;
54557;SDS011;40452;50.080;20.040;2024-02-26T14:00:23;6.40;;;4.03;;
54557;SDS011;40452;50.080;20.040;2024-02-26T14:02:52;7.57;;;4.20;;
54557;SDS011;40452;50.080;20.040;2024-02-26T14:05:18;6.40;;;3.78;;
54557;SDS011;40452;50.080;20.040;2024-02-26T14:07:45;8.90;;;3.92;;
54557;SDS011;40452;50.080;20.040;2024-02-26T14:10:11;6.63;;;3.95;;
54557;SDS011;40452;50.080;20.040;2024-02-26T14:12:38;6.85;;;4.20;;
54557;SDS011;40452;50.080;20.040;2024-02-26T14:15:04;6.18;;;4.20;;
54557;SDS011;40452;50.080;20.040;2024-02-26T14:17:30;7.47;;;4.05;;
54557;SDS011;40452;50.080;20.040;2024-02-26T14:19:56;8.65;;;4.10;;
54557;SDS011;40452;50.080;20.040;2024-02-26T14:22:22;8.20;;;3.90;;
54557;SDS011;40452;50.080;20.040;2024-02-26T14:24:48;9.95;;;5.13;;
54557;SDS011;40452;50.080;20.040;2024-02-26T14:27:15;9.55;;;4.82;;
54557;SDS011;40452;50.080;20.040;2024-02-26T14:29:42;6.65;;;4.70;;
54557;SDS011;40452;50.080;20.040;2024-02-26T14:32:09;12.20;;;5.18;;
54557;SDS011;40452;50.080;20.040;2024-02-26T14:34:35;9.00;;;5.28;;
54557;SDS011;40452;50.080;20.040;2024-02-26T14:37:01;7.75;;;5.25;;
54557;SDS011;40452;50.080;20.040;2024-02-26T14:39:27;7.78;;;5.22;;
54557;SDS011;40452;50.080;20.040;2024-02-26T14:41:54;12.18;;;5.80;;
54557;SDS011;40452;50.080;20.040;2024-02-26T14:44:20;9.98;;;5.45;;
54557;SDS011;40452;50.080;20.040;2024-02-26T14:46:46;10.50;;;5.50;;
54557;SDS011;40452;50.080;20.040;2024-02-26T14:49:12;8.93;;;5.22;;
54557;SDS011;40452;50.080;20.040;2024-02-26T14:51:38;11.38;;;6.10;;
54557;SDS011;40452;50.080;20.040;2024-02-26T14:54:04;10.68;;;5.80;;
54557;SDS011;40452;50.080;20.040;2024-02-26T14:56:30;9.85;;;5.72;;
54557;SDS011;40452;50.080;20.040;2024-02-26T14:58:56;15.02;;;6.10;;
54557;SDS011;40452;50.080;20.040;2024-02-26T15:01:23;10.63;;;5.97;;
54557;SDS011;40452;50.080;20.040;2024-02-26T15:03:49;12.35;;;6.03;;
54557;SDS011;40452;50.080;20.040;2024-02-26T15:06:15;9.43;;;6.72;;
54557;SDS011;40452;50.080;20.040;2024-02-26T15:08:41;10.18;;;6.20;;
54557;SDS011;40452;50.080;20.040;2024-02-26T15:11:07;13.85;;;5.95;;
54557;SDS011;40452;50.080;20.040;2024-02-26T15:13:34;9.02;;;6.20;;
54557;SDS011;40452;50.080;20.040;2024-02-26T15:16:00;10.88;;;5.90;;
54557;SDS011;40452;50.080;20.040;2024-02-26T15:18:26;11.32;;;5.97;;
54557;SDS011;40452;50.080;20.040;2024-02-26T15:20:52;10.55;;;5.70;;
54557;SDS011;40452;50.080;20.040;2024-02-26T15:23:18;9.85;;;6.13;;
54557;SDS011;40452;50.080;20.040;2024-02-26T15:25:44;8.20;;;6.07;;
54557;SDS011;40452;50.080;20.040;2024-02-26T15:28:10;10.30;;;6.20;;
54557;SDS011;40452;50.080;20.040;2024-02-26T15:30:39;16.17;;;9.38;;
54557;SDS011;40452;50.080;20.040;2024-02-26T15:33:04;14.93;;;7.30;;
54557;SDS011;40452;50.080;20.040;2024-02-26T15:35:30;10.27;;;6.90;;
54557;SDS011;40452;50.080;20.040;2024-02-26T15:37:57;14.02;;;7.43;;
54557;SDS011;40452;50.080;20.040;2024-02-26T15:40:23;10.57;;;7.50;;
54557;SDS011;40452;50.080;20.040;2024-02-26T15:42:49;16.33;;;7.60;;
54557;SDS011;40452;50.080;20.040;2024-02-26T15:45:15;19.35;;;7.53;;
54557;SDS011;40452;50.080;20.040;2024-02-26T15:47:41;12.13;;;8.25;;
54557;SDS011;40452;50.080;20.040;2024-02-26T15:50:07;12.75;;;8.18;;
54557;SDS011;40452;50.080;20.040;2024-02-26T15:52:35;13.00;;;8.73;;
54557;SDS011;40452;50.080;20.040;2024-02-26T15:55:01;14.57;;;8.35;;
54557;SDS011;40452;50.080;20.040;2024-02-26T15:57:27;17.92;;;8.30;;
54557;SDS011;40452;50.080;20.040;2024-02-26T15:59:53;14.98;;;8.20;;
54557;SDS011;40452;50.080;20.040;2024-02-26T16:02:25;19.65;;;8.73;;
54557;SDS011;40452;50.080;20.040;2024-02-26T16:04:51;16.30;;;7.32;;
54557;SDS011;40452;50.080;20.040;2024-02-26T16:07:18;12.77;;;7.78;;
54557;SDS011;40452;50.080;20.040;2024-02-26T16:09:50;11.98;;;7.40;;
54557;SDS011;40452;50.080;20.040;2024-02-26T16:12:18;10.87;;;6.90;;
54557;SDS011;40452;50.080;20.040;2024-02-26T16:14:49;14.35;;;7.28;;
54557;SDS011;40452;50.080;20.040;2024-02-26T16:17:29;9.68;;;6.95;;
54557;SDS011;40452;50.080;20.040;2024-02-26T16:20:01;10.43;;;6.78;;
54557;SDS011;40452;50.080;20.040;2024-02-26T16:22:33;12.05;;;7.50;;
54557;SDS011;40452;50.080;20.040;2024-02-26T16:25:01;12.55;;;7.15;;
54557;SDS011;40452;50.080;20.040;2024-02-26T16:27:28;15.55;;;7.53;;
54557;SDS011;40452;50.080;20.040;2024-02-26T16:29:54;17.30;;;8.73;;
54557;SDS011;40452;50.080;20.040;2024-02-26T16:32:21;17.20;;;8.65;;
54557;SDS011;40452;50.080;20.040;2024-02-26T16:34:47;20.25;;;9.57;;
54557;SDS011;40452;50.080;20.040;2024-02-26T16:37:13;19.25;;;10.68;;
54557;SDS011;40452;50.080;20.040;2024-02-26T16:39:40;22.17;;;11.50;;
54557;SDS011;40452;50.080;20.040;2024-02-26T16:42:10;23.67;;;12.43;;
54557;SDS011;40452;50.080;20.040;2024-02-26T16:44:39;18.35;;;11.20;;
54557;SDS011;40452;50.080;20.040;2024-02-26T16:47:05;20.50;;;12.05;;
54557;SDS011;40452;50.080;20.040;2024-02-26T16:49:32;21.38;;;11.63;;
54557;SDS011;40452;50.080;20.040;2024-02-26T16:51:58;25.42;;;11.73;;
54557;SDS011;40452;50.080;20.040;2024-02-26T16:54:24;24.42;;;11.77;;
54557;SDS011;40452;50.080;20.040;2024-02-26T16:56:50;18.95;;;11.52;;
54557;SDS011;40452;50.080;20.040;2024-02-26T16:59:16;18.27;;;11.90;;
54557;SDS011;40452;50.080;20.040;2024-02-26T17:01:45;19.33;;;11.35;;
54557;SDS011;40452;50.080;20.040;2024-02-26T17:04:12;20.52;;;10.93;;
54557;SDS011;40452;50.080;20.040;2024-02-26T17:06:38;18.58;;;10.90;;
54557;SDS011;40452;50.080;20.040;2024-02-26T17:09:04;18.92;;;11.00;;
54557;SDS011;40452;50.080;20.040;2024-02-26T17:11:32;22.38;;;11.35;;
54557;SDS011;40452;50.080;20.040;2024-02-26T17:13:59;15.60;;;10.55;;
54557;SDS011;40452;50.080;20.040;2024-02-26T17:16:25;18.30;;;10.55;;
54557;SDS011;40452;50.080;20.040;2024-02-26T17:18:51;16.40;;;10.50;;
54557;SDS011;40452;50.080;20.040;2024-02-26T17:21:18;17.67;;;10.75;;
54557;SDS011;40452;50.080;20.040;2024-02-26T17:23:44;18.33;;;10.32;;
54557;SDS011;40452;50.080;20.040;2024-02-26T17:26:16;19.02;;;10.60;;
54557;SDS011;40452;50.080;20.040;2024-02-26T17:28:42;17.10;;;10.40;;
54557;SDS011;40452;50.080;20.040;2024-02-26T17:31:08;17.50;;;10.88;;
54557;SDS011;40452;50.080;20.040;2024-02-26T17:33:35;16.25;;;10.40;;
54557;SDS011;40452;50.080;20.040;2024-02-26T17:36:01;18.60;;;10.88;;
54557;SDS011;40452;50.080;20.040;2024-02-26T17:38:27;19.42;;;11.15;;
54557;SDS011;40452;50.080;20.040;2024-02-26T17:40:54;20.40;;;11.30;;
54557;SDS011;40452;50.080;20.040;2024-02-26T17:43:20;22.73;;;10.70;;
54557;SDS011;40452;50.080;20.040;2024-02-26T17:45:46;18.67;;;10.77;;
54557;SDS011;40452;50.080;20.040;2024-02-26T17:48:12;21.05;;;11.63;;
54557;SDS011;40452;50.080;20.040;2024-02-26T17:50:38;19.17;;;10.80;;
54557;SDS011;40452;50.080;20.040;2024-02-26T17:53:04;16.98;;;11.45;;
54557;SDS011;40452;50.080;20.040;2024-02-26T17:55:30;18.40;;;10.98;;
54557;SDS011;40452;50.080;20.040;2024-02-26T17:57:56;19.88;;;12.63;;
54557;SDS011;40452;50.080;20.040;2024-02-26T18:00:23;20.08;;;10.98;;
54557;SDS011;40452;50.080;20.040;2024-02-26T18:02:52;22.63;;;12.57;;
54557;SDS011;40452;50.080;20.040;2024-02-26T18:05:18;21.60;;;11.85;;
54557;SDS011;40452;50.080;20.040;2024-02-26T18:07:44;17.98;;;11.50;;
54557;SDS011;40452;50.080;20.040;2024-02-26T18:10:10;22.85;;;12.40;;
54557;SDS011;40452;50.080;20.040;2024-02-26T18:12:37;20.60;;;11.80;;
54557;SDS011;40452;50.080;20.040;2024-02-26T18:15:04;17.05;;;10.70;;
54557;SDS011;40452;50.080;20.040;2024-02-26T18:17:32;22.58;;;11.40;;
54557;SDS011;40452;50.080;20.040;2024-02-26T18:19:58;16.00;;;11.50;;
54557;SDS011;40452;50.080;20.040;2024-02-26T18:22:25;18.70;;;11.38;;
54557;SDS011;40452;50.080;20.040;2024-02-26T18:24:51;17.90;;;10.07;;
54557;SDS011;40452;50.080;20.040;2024-02-26T18:27:17;18.30;;;11.20;;
54557;SDS011;40452;50.080;20.040;2024-02-26T18:29:43;17.42;;;10.90;;
54557;SDS011;40452;50.080;20.040;2024-02-26T18:32:09;20.27;;;10.88;;
54557;SDS011;40452;50.080;20.040;2024-02-26T18:34:35;17.38;;;10.48;;
54557;SDS011;40452;50.080;20.040;2024-02-26T18:37:03;19.30;;;10.75;;
54557;SDS011;40452;50.080;20.040;2024-02-26T18:39:29;16.65;;;11.27;;
54557;SDS011;40452;50.080;20.040;2024-02-26T18:41:55;18.85;;;11.30;;
54557;SDS011;40452;50.080;20.040;2024-02-26T18:44:22;15.60;;;10.85;;
54557;SDS011;40452;50.080;20.040;2024-02-26T18:46:49;16.10;;;11.00;;
54557;SDS011;40452;50.080;20.040;2024-02-26T18:49:15;21.42;;;11.20;;
54557;SDS011;40452;50.080;20.040;2024-02-26T18:51:41;16.15;;;10.88;;
54557;SDS011;40452;50.080;20.040;2024-02-26T18:54:07;20.02;;;11.05;;
54557;SDS011;40452;50.080;20.040;2024-02-26T18:56:34;16.02;;;10.85;;
54557;SDS011;40452;50.080;20.040;2024-02-26T18:59:03;16.70;;;11.95;;
54557;SDS011;40452;50.080;20.040;2024-02-26T19:01:29;23.55;;;11.77;;
54557;SDS011;40452;50.080;20.040;2024-02-26T19:03:57;20.40;;;12.50;;
54557;SDS011;40452;50.080;20.040;2024-02-26T19:06:23;18.05;;;12.55;;
54557;SDS011;40452;50.080;20.040;2024-02-26T19:08:49;20.92;;;12.05;;
54557;SDS011;40452;50.080;20.040;2024-02-26T19:11:15;22.58;;;12.27;;
54557;SDS011;40452;50.080;20.040;2024-02-26T19:13:42;19.77;;;11.63;;
54557;SDS011;40452;50.080;20.040;2024-02-26T19:16:08;18.83;;;11.45;;
54557;SDS011;40452;50.080;20.040;2024-02-26T19:18:34;22.38;;;11.45;;
54557;SDS011;40452;50.080;20.040;2024-02-26T19:21:01;15.88;;;10.70;;
54557;SDS011;40452;50.080;20.040;2024-02-26T19:23:27;21.10;;;11.55;;
54557;SDS011;40452;50.080;20.040;2024-02-26T19:25:53;18.13;;;11.10;;
54557;SDS011;40452;50.080;20.040;2024-02-26T19:28:19;18.98;;;11.15;;
54557;SDS011;40452;50.080;20.040;2024-02-26T19:30:45;16.13;;;10.27;;
54557;SDS011;40452;50.080;20.040;2024-02-26T19:33:11;14.05;;;10.13;;
54557;SDS011;40452;50.080;20.040;2024-02-26T19:35:37;15.20;;;10.50;;
54557;SDS011;40452;50.080;20.040;2024-02-26T19:38:04;17.38;;;10.70;;
54557;SDS011;40452;50.080;20.040;2024-02-26T19:40:30;15.70;;;10.10;;
54557;SDS011;40452;50.080;20.040;2024-02-26T19:42:56;17.88;;;11.00;;
54557;SDS011;40452;50.080;20.040;2024-02-26T19:45:25;16.67;;;11.07;;
54557;SDS011;40452;50.080;20.040;2024-02-26T19:47:51;15.23;;;10.88;;
54557;SDS011;40452;50.080;20.040;2024-02-26T19:50:17;21.50;;;11.80;;
54557;SDS011;40452;50.080;20.040;2024-02-26T19:52:43;20.35;;;10.60;;
54557;SDS011;40452;50.080;20.040;2024-02-26T19:55:12;20.23;;;11.30;;
54557;SDS011;40452;50.080;20.040;2024-02-26T19:57:39;16.45;;;10.43;;
54557;SDS011;40452;50.080;20.040;2024-02-26T20:00:06;17.15;;;10.13;;
54557;SDS011;40452;50.080;20.040;2024-02-26T20:02:32;21.52;;;10.90;;
54557;SDS011;40452;50.080;20.040;2024-02-26T20:04:59;21.92;;;10.85;;
54557;SDS011;40452;50.080;20.040;2024-02-26T20:07:25;21.25;;;11.35;;
54557;SDS011;40452;50.080;20.040;2024-02-26T20:09:53;19.83;;;10.38;;
54557;SDS011;40452;50.080;20.040;2024-02-26T20:12:19;23.65;;;11.65;;
54557;SDS011;40452;50.080;20.040;2024-02-26T20:14:45;21.95;;;11.68;;
54557;SDS011;40452;50.080;20.040;2024-02-26T20:17:11;21.35;;;12.63;;
54557;SDS011;40452;50.080;20.040;2024-02-26T20:19:40;25.17;;;11.60;;
54557;SDS011;40452;50.080;20.040;2024-02-26T20:22:07;22.50;;;12.18;;
54557;SDS011;40452;50.080;20.040;2024-02-26T20:24:35;20.40;;;11.35;;
54557;SDS011;40452;50.080;20.040;2024-02-26T20:27:01;21.05;;;11.95;;
54557;SDS011;40452;50.080;20.040;2024-02-26T20:29:27;18.50;;;12.13;;
54557;SDS011;40452;50.080;20.040;2024-02-26T20:31:53;20.70;;;11.77;;
54557;SDS011;40452;50.080;20.040;2024-02-26T20:34:19;22.35;;;13.40;;
54557;SDS011;40452;50.080;20.040;2024-02-26T20:36:45;26.80;;;12.00;;
54557;SDS011;40452;50.080;20.040;2024-02-26T20:39:11;20.90;;;12.10;;
54557;SDS011;40452;50.080;20.040;2024-02-26T20:41:37;21.25;;;11.52;;
54557;SDS011;40452;50.080;20.040;2024-02-26T20:44:03;20.50;;;10.52;;
